• Join FlightAware (Why Join?)
  • Login
  • US Flag 
12:59AM EDT


 

Airport Tracker/Info


-or-


 

Live Flight TrackerFlight Track Log ✈ UAL906 ✈ 18-Apr-2013 ✈ KORD - EDDM / MUC

Flight Track Log - Related Links

Times and Time Zones

All times are in EDT time to prevent confusion due to time zone crossing. See the UAL906 flight status page for this flight to view local times or setup timezone preferences in your user account.

Time Position Orientation Groundspeed Altitude Reporting Facility
EDT Latitude Longitude Course Direction KTS MPH feet Rate Location/Type
07:37PM 41.9690 -87.9250 270° West 178 205 1,600  Level FlightAware
07:37PM 41.9690 -87.9550 270° West 175 201 2,800 1,920 Climbing FlightAware
07:37PM 41.9690 -87.9930 270° West 220 253 3,400 1,980 Climbing FlightAware
07:38PM 41.9700 -88.0350 272° West 227 261 4,800 2,700 Climbing FlightAware
07:38PM 41.9740 -88.0490 291° West 250 288 5,200 2,400 Climbing FlightAware
07:38PM 41.9850 -88.0660 311° West 279 321 5,800 2,400 Climbing FlightAware
07:39PM 42.0050 -88.0780 336° Northwest 311 358 6,400 2,400 Climbing FlightAware
07:39PM 42.0250 -88.0800 356° North 326 375 7,000 2,820 Climbing FlightAware
07:39PM 42.0670 -88.0760 North 335 386 8,300 3,000 Climbing FlightAware
07:40PM 42.1140 -88.0700 North 339 390 9,800 3,000 Climbing FlightAware
07:41PM 42.1820 -88.0640 North 338 389 12,100 2,100 Climbing FlightAware
07:41PM 42.2650 -88.0530 North 345 397 13,300 2,100 Climbing FlightAware
07:42PM 42.3410 -88.0370 North 382 440 15,600 2,580 Climbing FlightAware
07:43PM 42.4120 -88.0180 11° North 409 471 17,000 1,980 Climbing FlightAware
07:44PM 42.4810 -87.9760 24° Northeast 426 490 18,300 1,800 Climbing FlightAware
07:44PM 42.5490 -87.9090 36° Northeast 450 518 19,400 1,620 Climbing FlightAware
07:45PM 42.6270 -87.8320 36° Northeast 469 540 20,600 1,440 Climbing FlightAware
07:46PM 42.6980 -87.7630 36° Northeast 481 554 21,500 1,740 Climbing FlightAware
07:46PM 42.7780 -87.6830 36° Northeast 481 554 23,100 1,200 Climbing FlightAware
07:47PM 42.8380 -87.6240 36° Northeast 481 554 23,100  Level FlightAware
07:48PM 42.9150 -87.5480 36° Northeast 481 554 23,100  Level FlightAware
07:48PM 42.9760 -87.4870 36° Northeast 481 554 23,100  Level FlightAware
07:49PM 43.0370 -87.4260 36° Northeast 481 554 23,100  Level FlightAware
07:50PM 43.0980 -87.3660 36° Northeast 481 554 23,100 2,760 Level FlightAware
07:51PM 43.4210 -87.1180 29° Northeast 563 648 29,600 3,180 Climbing FlightAware
07:52PM 43.5190 -87.0310 33° Northeast 556 640 30,900 1,440 Climbing FlightAware
07:53PM 43.6040 -86.9560 33° Northeast 556 640 31,700 1,380 Climbing FlightAware
07:54PM 43.7050 -86.8660 33° Northeast 553 636 32,900 960 Climbing FlightAware
07:54PM 43.7790 -86.8000 33° Northeast 561 646 33,000 60 Climbing FlightAware
07:55PM 43.9080 -86.6850 33° Northeast 554 638 33,000  Level FlightAware
07:56PM 43.9930 -86.6080 33° Northeast 550 633 33,000  Level FlightAware
07:57PM 44.0910 -86.5190 33° Northeast 547 629 33,000  Level FlightAware
07:57PM 44.1760 -86.4430 33° Northeast 543 625 33,000  Level FlightAware
07:58PM 44.2700 -86.3580 33° Northeast 540 621 33,000  Level FlightAware
07:59PM 44.3510 -86.2830 34° Northeast 538 619 33,000  Level FlightAware
07:59PM 44.4320 -86.2100 33° Northeast 538 619 33,000  Level FlightAware
08:00PM 44.5050 -86.1430 33° Northeast 540 621 33,000  Level FlightAware
08:01PM 44.6150 -86.0410 33° Northeast 547 629 33,000  Level FlightAware
08:02PM 44.7090 -85.9540 33° Northeast 553 636 33,000  Level FlightAware
08:02PM 44.7900 -85.8790 33° Northeast 554 638 33,000  Level FlightAware
08:03PM 44.8770 -85.7980 33° Northeast 559 643 33,000  Level FlightAware
08:04PM 44.9640 -85.7170 33° Northeast 561 646 33,000  Level FlightAware
08:04PM 45.0610 -85.6250 34° Northeast 562 647 33,000  Level FlightAware
08:05PM 45.1590 -85.5320 34° Northeast 563 648 33,000  Level FlightAware
08:06PM 45.2500 -85.4470 33° Northeast 563 648 33,000  Level FlightAware
08:06PM 45.3370 -85.3640 34° Northeast 564 649 33,000  Level FlightAware
08:07PM 45.4310 -85.2740 34° Northeast 564 649 33,000  Level FlightAware
08:08PM 45.5200 -85.1890 34° Northeast 564 649 33,000  Level FlightAware
08:08PM 45.6080 -85.1040 34° Northeast 563 648 33,000  Level FlightAware
08:09PM 45.7010 -85.0150 34° Northeast 562 647 33,000  Level FlightAware
08:10PM 45.7880 -84.9300 34° Northeast 561 646 33,000  Level FlightAware
08:11PM 45.8860 -84.8350 34° Northeast 561 646 33,000  Level FlightAware
08:11PM 45.9720 -84.7500 34° Northeast 561 646 33,000  Level FlightAware
08:12PM 46.0670 -84.6570 34° Northeast 562 647 33,000  Level FlightAware
08:13PM 46.1520 -84.5730 34° Northeast 562 647 33,000  Level FlightAware
08:13PM 46.2380 -84.4880 34° Northeast 563 648 33,000  Level FlightAware
08:14PM 46.3370 -84.3900 34° Northeast 563 648 33,000  Level FlightAware
08:15PM 46.4210 -84.3020 36° Northeast 564 649 33,000  Level FlightAware
08:16PM 46.5090 -84.1970 39° Northeast 565 650 33,000  Level FlightAware
08:16PM 46.5830 -84.1060 40° Northeast 566 651 33,000  Level FlightAware
08:17PM 46.6700 -83.9990 40° Northeast 566 651 33,000  Level FlightAware
08:18PM 46.7590 -83.8890 40° Northeast 568 654 33,000  Level FlightAware
08:18PM 46.8400 -83.7890 40° Northeast 568 654 33,000  Level FlightAware
08:19PM 46.9200 -83.6890 40° Northeast 568 654 33,000  Level FlightAware
08:20PM 47.0090 -83.5780 40° Northeast 568 654 33,000  Level FlightAware
08:20PM 47.0890 -83.4780 40° Northeast 568 654 33,000  Level FlightAware
08:21PM 47.1820 -83.3610 41° Northeast 568 654 33,000  Level FlightAware
08:22PM 47.2580 -83.2640 41° Northeast 569 655 33,000  Level FlightAware
08:22PM 47.3390 -83.1610 41° Northeast 570 656 33,000  Level FlightAware
08:23PM 47.4340 -83.0420 40° Northeast 570 656 33,000  Level FlightAware
08:24PM 47.5200 -82.9350 40° Northeast 570 656 33,000  Level FlightAware
08:25PM 47.5880 -82.8500 40° Northeast 570 656 33,000  Level FlightAware
08:25PM 47.6570 -82.7640 40° Northeast 570 656 33,000  Level FlightAware
08:26PM 47.7260 -82.6790 40° Northeast 570 656 33,000  Level FlightAware
08:27PM 47.8120 -82.5710 40° Northeast 570 656 33,000  Level FlightAware
08:28PM 47.8800 -82.4850 40° Northeast 570 656 33,000  Level FlightAware
08:28PM 47.9490 -82.3990 40° Northeast 570 656 33,000  Level FlightAware
08:29PM 48.0180 -82.3130 40° Northeast 570 656 33,000  Level FlightAware
08:30PM 48.0860 -82.2270 40° Northeast 570 656 33,000  Level FlightAware
08:30PM 48.1550 -82.1410 40° Northeast 570 656 33,000  Level FlightAware
08:31PM 48.2410 -82.0330 40° Northeast 570 656 33,000  Level FlightAware
08:32PM 48.3090 -81.9460 40° Northeast 570 656 33,000  Level FlightAware
08:32PM 48.3780 -81.8590 40° Northeast 570 656 33,000  Level FlightAware
08:34PM 48.6333 -81.4667 40° Northeast 560 644 33,000  Level Montreal Center
08:35PM 48.7500 -81.3000 43° Northeast 560 644 33,000  Level Montreal Center
08:36PM 48.8667 -81.1500 40° Northeast 560 644 33,000  Level Montreal Center
08:37PM 48.9667 -80.9833 48° Northeast 560 644 33,000  Level Montreal Center
08:38PM 49.1000 -80.8167 39° Northeast 560 644 33,000  Level Montreal Center
08:39PM 49.2000 -80.6500 47° Northeast 560 644 33,000 420 Level Montreal Center
08:40PM 49.3333 -80.5167 33° Northeast 560 644 33,900 960 Climbing Montreal Center
08:41PM 49.4333 -80.3167 52° Northeast 560 644 35,000 540 Climbing Montreal Center
08:42PM 49.5500 -80.1667 40° Northeast 560 644 35,000  Level Montreal Center
08:43PM 49.6500 -80.0000 47° Northeast 560 644 35,000  Level Montreal Center
08:44PM 49.7667 -79.8000 48° Northeast 560 644 35,000  Level Montreal Center
08:45PM 49.8333 -79.5833 64° Northeast 560 644 35,000  Level Montreal Center
08:46PM 49.9167 -79.3833 57° Northeast 570 656 35,000  Level Montreal Center
08:47PM 50.0167 -79.1833 52° Northeast 560 644 35,000  Level Montreal Center
08:48PM 50.1000 -78.9833 57° Northeast 560 644 35,000  Level Montreal Center
08:49PM 50.2000 -78.7833 52° Northeast 560 644 35,000  Level Montreal Center
08:50PM 50.2833 -78.5500 61° Northeast 560 644 35,000  Level Montreal Center
08:51PM 50.3667 -78.3667 54° Northeast 560 644 35,000  Level Montreal Center
08:52PM 50.4667 -78.1667 52° Northeast 570 656 35,000  Level Montreal Center
08:53PM 50.5333 -77.9500 64° Northeast 560 644 35,000  Level Montreal Center
08:54PM 50.6167 -77.7167 61° Northeast 570 656 35,000  Level Montreal Center
08:55PM 50.7000 -77.5000 59° Northeast 570 656 35,000  Level Montreal Center
08:56PM 50.7833 -77.3000 57° Northeast 570 656 35,000  Level Montreal Center
08:57PM 50.8833 -77.0833 54° Northeast 570 656 35,000  Level Montreal Center
08:58PM 50.9667 -76.8667 59° Northeast 570 656 35,000  Level Montreal Center
08:59PM 51.0500 -76.6667 56° Northeast 570 656 35,000  Level Montreal Center
09:00PM 51.1333 -76.4500 58° Northeast 570 656 35,000  Level Montreal Center
09:01PM 51.2167 -76.2000 62° Northeast 580 667 35,000  Level Montreal Center
09:02PM 51.3000 -76.0000 56° Northeast 580 667 35,000  Level Montreal Center
09:03PM 51.3833 -75.7500 62° Northeast 580 667 35,000  Level Montreal Center
09:04PM 51.4667 -75.5333 58° Northeast 580 667 35,000  Level Montreal Center
09:05PM 51.5500 -75.3167 58° Northeast 580 667 35,000  Level Montreal Center
09:06PM 51.6333 -75.1000 58° Northeast 580 667 35,000  Level Montreal Center
09:07PM 51.7167 -74.8833 58° Northeast 580 667 35,000  Level Montreal Center
09:08PM 51.8000 -74.6333 62° Northeast 580 667 35,000  Level Montreal Center
09:09PM 51.8833 -74.4167 58° Northeast 580 667 35,000  Level Montreal Center
09:10PM 51.9667 -74.1833 60° Northeast 580 667 35,000  Level Montreal Center
09:11PM 52.0500 -73.9667 58° Northeast 580 667 35,000  Level Montreal Center
09:12PM 52.1167 -73.7500 63° Northeast 580 667 35,000  Level Montreal Center
09:13PM 52.2000 -73.5000 61° Northeast 580 667 35,000  Level Montreal Center
09:14PM 52.2833 -73.2667 60° Northeast 580 667 35,000  Level Montreal Center
09:15PM 52.3667 -73.0167 61° Northeast 580 667 35,000  Level Montreal Center
09:16PM 52.4333 -72.7833 65° Northeast 580 667 35,000  Level Montreal Center
09:17PM 52.5167 -72.5667 58° Northeast 580 667 35,000  Level Montreal Center
09:18PM 52.6000 -72.3333 59° Northeast 580 667 35,000  Level Montreal Center
09:19PM 52.6667 -72.0833 66° East 580 667 35,000  Level Montreal Center
09:20PM 52.7500 -71.8500 59° Northeast 580 667 35,000  Level Montreal Center
09:21PM 52.8167 -71.6167 65° Northeast 580 667 35,000  Level Montreal Center
09:22PM 52.9000 -71.3833 59° Northeast 580 667 35,000  Level Montreal Center
09:23PM 52.9667 -71.1167 67° East 580 667 35,000  Level Montreal Center
09:24PM 53.0500 -70.9000 57° Northeast 580 667 35,000  Level Montreal Center
09:25PM 53.1167 -70.6500 66° East 580 667 35,000  Level Montreal Center
09:26PM 53.2000 -70.4167 59° Northeast 580 667 35,000  Level Montreal Center
09:27PM 53.2667 -70.1667 66° East 590 679 35,000  Level Montreal Center
09:28PM 53.3333 -69.9000 67° East 590 679 35,000  Level Montreal Center
09:29PM 53.3833 -69.6333 72° East 600 690 35,000  Level Montreal Center
09:30PM 53.4667 -69.3667 62° Northeast 600 690 35,000  Level Montreal Center
09:30PM 53.4833 -69.2500 76° East 610 702 35,000  Level Gander Center
09:31PM 53.5167 -69.1000 69° East 600 690 35,000  Level Montreal Center
09:32PM 53.5833 -68.8333 67° East 600 690 35,000  Level Montreal Center
09:33PM 53.6333 -68.6000 70° East 600 690 35,000  Level Montreal Center
09:34PM 53.6833 -68.3333 72° East 600 690 35,000  Level Montreal Center
09:34PM 53.7333 -68.1833 61° Northeast 600 690 35,000  Level Gander Center
09:35PM 53.7833 -67.9167 72° East 610 702 35,000  Level Gander Center
09:36PM 53.8000 -67.8000 76° East 600 690 35,000  Level Montreal Center
09:37PM 53.8667 -67.5333 67° East 600 690 35,000  Level Montreal Center
09:38PM 53.9333 -67.2333 69° East 600 690 35,000  Level Montreal Center
09:39PM 53.9833 -66.9833 71° East 590 679 35,000  Level Montreal Center
09:40PM 54.0333 -66.7167 72° East 600 690 35,000  Level Montreal Center
09:41PM 54.0833 -66.4333 73° East 590 679 35,000  Level Montreal Center
09:42PM 54.1333 -66.1667 72° East 590 679 35,000  Level Montreal Center
09:43PM 54.1833 -65.9000 72° East 590 679 35,000  Level Montreal Center
09:44PM 54.2500 -65.6500 65° Northeast 590 679 35,000  Level Montreal Center
09:44PM 54.2667 -65.5167 78° East 590 679 35,000  Level Gander Center
09:45PM 54.3167 -65.2333 73° East 590 679 35,000  Level Gander Center
09:46PM 54.3833 -64.9500 68° East 590 679 35,000  Level Gander Center
09:47PM 54.4167 -64.7000 77° East 590 679 35,000  Level Gander Center
09:48PM 54.4667 -64.4500 71° East 580 667 35,000  Level Gander Center
09:49PM 54.5167 -64.1667 73° East 580 667 35,000  Level Gander Center
09:50PM 54.5500 -63.9000 78° East 590 679 35,000  Level Gander Center
09:51PM 54.6167 -63.6167 68° East 580 667 35,000  Level Gander Center
09:52PM 54.6500 -63.3667 77° East 580 667 35,000  Level Gander Center
09:53PM 54.6833 -63.1000 78° East 580 667 35,000  Level Gander Center
09:54PM 54.7333 -62.8167 73° East 580 667 35,000  Level Gander Center
09:55PM 54.7833 -62.5500 72° East 580 667 35,000  Level Gander Center
09:56PM 54.8167 -62.3000 77° East 580 667 35,000  Level Gander Center
09:57PM 54.8667 -62.0000 74° East 590 679 35,000  Level Gander Center
09:58PM 54.9000 -61.7167 78° East 600 690 35,000  Level Gander Center
09:59PM 54.9500 -61.4500 72° East 600 690 35,000  Level Gander Center
10:00PM 54.9833 -61.1667 78° East 600 690 35,000  Level Gander Center
10:01PM 55.0333 -60.8667 74° East 600 690 35,000  Level Gander Center
10:02PM 55.0667 -60.6167 77° East 600 690 35,000  Level Gander Center
10:03PM 55.1167 -60.3167 74° East 600 690 35,000  Level Gander Center
10:04PM 55.1500 -60.0333 78° East 590 679 35,000  Level Gander Center
10:05PM 55.1833 -59.7667 78° East 600 690 35,000  Level Gander Center
10:06PM 55.2167 -59.4667 79° East 590 679 35,000  Level Gander Center
10:07PM 55.2500 -59.2000 78° East 590 679 35,000  Level Gander Center
10:08PM 55.3000 -58.9000 74° East 590 679 35,000  Level Gander Center
10:09PM 55.3167 -58.6333 84° East 590 679 35,000  Level Gander Center
10:10PM 55.3333 -58.4833 79° East 590 679 35,000  Level Gander Center
10:10PM 55.3667 -58.3500 66° East 590 679 35,000  Level Gander Center
10:11PM 55.4000 -58.0833 77° East 590 679 35,000  Level Gander Center
10:12PM 55.4000 -57.9333 90° East 580 667 35,000  Level Gander Center
10:12PM 55.4333 -57.7833 69° East 590 679 35,000  Level Gander Center
10:13PM 55.4333 -57.6667 90° East 590 679 35,000  Level Gander Center
10:13PM 55.4667 -57.5167 69° East 580 667 35,000  Level Gander Center
10:14PM 55.4833 -57.2167 84° East 580 667 35,000  Level Gander Center
10:15PM 55.5333 -56.9500 72° East 580 667 35,000  Level Gander Center
10:16PM 55.5667 -56.7000 77° East 560 644 35,000  Level Gander Center
10:17PM 55.6167 -56.4333 72° East 560 644 35,000  Level Gander Center
10:18PM 55.6833 -56.1833 65° Northeast 550 633 35,000  Level Gander Center
10:19PM 55.7500 -55.9333 65° Northeast 540 621 35,000  Level Gander Center
10:20PM 55.8167 -55.6833 65° Northeast 540 621 35,000  Level Gander Center
10:21PM 55.8667 -55.4500 69° East 540 621 35,000  Level Gander Center
10:22PM 55.9167 -55.2000 70° East 540 621 35,000  Level Gander Center
10:23PM 55.9833 -54.9500 64° Northeast 550 633 35,000  Level Gander Center
10:24PM 56.0167 -54.7000 76° East 540 621 35,000  Level Gander Center
10:25PM 56.0500 -54.6167 54° Northeast 540 621 35,000  Level Gander Center
10:25PM 56.0833 -54.4500 70° East 530 610 35,000  Level Gander Center
10:26PM 56.1000 -54.3667 70° East 530 610 35,000  Level Gander Center
10:26PM 56.1333 -54.2000 70° East 530 610 35,000  Level Gander Center
10:27PM 56.2000 -53.9833 61° Northeast 530 610 35,000  Level Gander Center
10:28PM 56.2333 -53.7000 78° East 540 621 35,000  Level Gander Center
10:29PM 56.3000 -53.4833 61° Northeast 530 610 35,000  Level Gander Center
10:30PM 56.3333 -53.2000 78° East 550 633 35,000  Level Gander Center
10:31PM 56.4000 -52.9667 63° Northeast 540 621 35,000  Level Gander Center
10:32PM 56.4500 -52.7500 67° East 530 610 35,000  Level Gander Center
10:33PM 56.5000 -52.4667 72° East 520 598 35,000  Level Gander Center
10:34PM 56.5167 -52.3667 73° East 520 598 35,000  Level Gander Center
10:35PM 56.5833 -52.1500 61° Northeast 520 598 35,000  Level Gander Center
10:36PM 56.6167 -51.8833 77° East 530 610 35,000  Level Gander Center
10:38PM 56.6711 -51.5917 68° East  Level FlightAware Approximate
10:45PM 57.0149 -49.8954 75° East  Level FlightAware Approximate
10:46PM 57.0504 -49.6439 75° East  Level FlightAware Approximate
10:47PM 57.0854 -49.3919 76° East  Level FlightAware Approximate
10:48PM 57.1199 -49.1395 76° East  Level FlightAware Approximate
10:49PM 57.1539 -48.8866 76° East  Level FlightAware Approximate
10:50PM 57.1874 -48.6333 76° East  Level FlightAware Approximate
10:51PM 57.2203 -48.3794 76° East  Level FlightAware Approximate
10:52PM 57.2528 -48.1252 77° East  Level FlightAware Approximate
10:53PM 57.2847 -47.8704 77° East  Level FlightAware Approximate
10:54PM 57.3162 -47.6153 77° East  Level FlightAware Approximate
10:55PM 57.3470 -47.3597 77° East  Level FlightAware Approximate
10:56PM 57.3774 -47.1037 77° East  Level FlightAware Approximate
10:57PM 57.4073 -46.8473 78° East  Level FlightAware Approximate
10:58PM 57.4366 -46.5904 78° East  Level FlightAware Approximate
10:59PM 57.4655 -46.3332 78° East  Level FlightAware Approximate
11:00PM 57.4937 -46.0755 78° East  Level FlightAware Approximate
11:01PM 57.5215 -45.8175 79° East  Level FlightAware Approximate
11:02PM 57.5488 -45.5590 79° East  Level FlightAware Approximate
11:03PM 57.5755 -45.3002 79° East  Level FlightAware Approximate
11:04PM 57.6016 -45.0410 79° East  Level FlightAware Approximate
11:05PM 57.6273 -44.7814 79° East  Level FlightAware Approximate
11:06PM 57.6524 -44.5215 80° East  Level FlightAware Approximate
11:07PM 57.6770 -44.2612 80° East  Level FlightAware Approximate
11:08PM 57.7010 -44.0005 80° East  Level FlightAware Approximate
11:09PM 57.7246 -43.7396 80° East  Level FlightAware Approximate
11:10PM 57.7475 -43.4782 81° East  Level FlightAware Approximate
11:11PM 57.7700 -43.2166 81° East  Level FlightAware Approximate
11:12PM 57.7919 -42.9546 81° East  Level FlightAware Approximate
11:13PM 57.8132 -42.6923 81° East  Level FlightAware Approximate
11:14PM 57.8341 -42.4298 81° East  Level FlightAware Approximate
11:15PM 57.8543 -42.1669 82° East  Level FlightAware Approximate
11:16PM 57.8741 -41.9037 82° East  Level FlightAware Approximate
11:17PM 57.8932 -41.6402 82° East  Level FlightAware Approximate
11:18PM 57.9119 -41.3765 82° East  Level FlightAware Approximate
11:19PM 57.9300 -41.1125 83° East  Level FlightAware Approximate
11:20PM 57.9475 -40.8482 83° East  Level FlightAware Approximate
11:21PM 57.9645 -40.5837 83° East  Level FlightAware Approximate
11:22PM 57.9809 -40.3189 83° East  Level FlightAware Approximate
11:23PM 57.9968 -40.0539 83° East  Level FlightAware Approximate
11:24PM 58.0082 -39.7879 86° East  Level FlightAware Approximate
11:25PM 58.0179 -39.5216 86° East  Level FlightAware Approximate
11:26PM 58.0271 -39.2553 86° East  Level FlightAware Approximate
11:27PM 58.0357 -38.9887 86° East  Level FlightAware Approximate
11:28PM 58.0438 -38.7221 87° East  Level FlightAware Approximate
11:29PM 58.0513 -38.4553 87° East  Level FlightAware Approximate
11:30PM 58.0582 -38.1884 87° East  Level FlightAware Approximate
11:31PM 58.0646 -37.9215 87° East  Level FlightAware Approximate
11:32PM 58.0705 -37.6544 88° East  Level FlightAware Approximate
11:33PM 58.0758 -37.3872 88° East  Level FlightAware Approximate
11:34PM 58.0805 -37.1200 88° East  Level FlightAware Approximate
11:35PM 58.0846 -36.8527 88° East  Level FlightAware Approximate
11:36PM 58.0882 -36.5854 88° East  Level FlightAware Approximate
11:37PM 58.0913 -36.3180 89° East  Level FlightAware Approximate
11:38PM 58.0938 -36.0505 89° East  Level FlightAware Approximate
11:39PM 58.0957 -35.7831 89° East  Level FlightAware Approximate
11:40PM 58.0970 -35.5156 89° East  Level FlightAware Approximate
11:41PM 58.0978 -35.2481 90° East  Level FlightAware Approximate
11:42PM 58.0981 -34.9805 90° East  Level FlightAware Approximate
11:43PM 58.0978 -34.7130 90° East  Level FlightAware Approximate
11:44PM 58.0969 -34.4455 90° East  Level FlightAware Approximate
11:45PM 58.0954 -34.1780 90° East  Level FlightAware Approximate
11:46PM 58.0934 -33.9105 91° East  Level FlightAware Approximate
11:47PM 58.0909 -33.6431 91° East  Level FlightAware Approximate
11:48PM 58.0878 -33.3757 91° East  Level FlightAware Approximate
11:49PM 58.0841 -33.1084 91° East  Level FlightAware Approximate
11:50PM 58.0798 -32.8411 92° East  Level FlightAware Approximate
11:51PM 58.0750 -32.5739 92° East  Level FlightAware Approximate
11:52PM 58.0697 -32.3067 92° East  Level FlightAware Approximate
11:53PM 58.0638 -32.0397 92° East  Level FlightAware Approximate
11:54PM 58.0573 -31.7727 93° East  Level FlightAware Approximate
11:55PM 58.0502 -31.5059 93° East  Level FlightAware Approximate
11:56PM 58.0426 -31.2391 93° East  Level FlightAware Approximate
11:57PM 58.0345 -30.9725 93° East  Level FlightAware Approximate
11:58PM 58.0258 -30.7060 93° East  Level FlightAware Approximate
11:59PM 58.0165 -30.4396 94° East  Level FlightAware Approximate
12:00AM 58.0067 -30.1734 94° East  Level FlightAware Approximate
12:01AM 58.0029 -29.9072 87° East  Level FlightAware Approximate
12:02AM 58.0109 -29.6407 87° East  Level FlightAware Approximate
12:03AM 58.0183 -29.3742 87° East  Level FlightAware Approximate
12:04AM 58.0252 -29.1076 87° East  Level FlightAware Approximate
12:05AM 58.0315 -28.8408 87° East  Level FlightAware Approximate
12:06AM 58.0372 -28.5740 88° East  Level FlightAware Approximate
12:07AM 58.0424 -28.3071 88° East  Level FlightAware Approximate
12:08AM 58.0471 -28.0401 88° East  Level FlightAware Approximate
12:09AM 58.0518 -27.7731 87° East  Level FlightAware Approximate
12:10AM 58.0578 -27.5062 87° East  Level FlightAware Approximate
12:11AM 58.0632 -27.2391 88° East  Level FlightAware Approximate
12:12AM 58.0680 -26.9720 88° East  Level FlightAware Approximate
12:13AM 58.0723 -26.7048 88° East  Level FlightAware Approximate
12:14AM 58.0760 -26.4375 88° East  Level FlightAware Approximate
12:15AM 58.0791 -26.1702 89° East  Level FlightAware Approximate
12:16AM 58.0817 -25.9029 89° East  Level FlightAware Approximate
12:17AM 58.0838 -25.6355 89° East  Level FlightAware Approximate
12:18AM 58.0855 -25.3681 89° East  Level FlightAware Approximate
12:19AM 58.0866 -25.1007 89° East  Level FlightAware Approximate
12:20AM 58.0871 -24.8332 90° East  Level FlightAware Approximate
12:21AM 58.0871 -24.5658 90° East  Level FlightAware Approximate
12:22AM 58.0865 -24.2984 90° East  Level FlightAware Approximate
12:23AM 58.0853 -24.0309 90° East  Level FlightAware Approximate
12:24AM 58.0836 -23.7635 91° East  Level FlightAware Approximate
12:25AM 58.0813 -23.4962 91° East  Level FlightAware Approximate
12:26AM 58.0785 -23.2288 91° East  Level FlightAware Approximate
12:27AM 58.0751 -22.9615 91° East  Level FlightAware Approximate
12:28AM 58.0712 -22.6943 91° East  Level FlightAware Approximate
12:29AM 58.0667 -22.4272 92° East  Level FlightAware Approximate
12:30AM 58.0616 -22.1600 92° East  Level FlightAware Approximate
12:31AM 58.0560 -21.8930 92° East  Level FlightAware Approximate
12:32AM 58.0498 -21.6261 92° East  Level FlightAware Approximate
12:33AM 58.0431 -21.3593 93° East  Level FlightAware Approximate
12:34AM 58.0358 -21.0925 93° East  Level FlightAware Approximate
12:35AM 58.0279 -20.8259 93° East  Level FlightAware Approximate
12:36AM 58.0195 -20.5594 93° East  Level FlightAware Approximate
12:37AM 58.0105 -20.2931 94° East  Level FlightAware Approximate
12:38AM 58.0010 -20.0268 94° East  Level FlightAware Approximate
12:39AM 57.9702 -19.7669 103° East  Level FlightAware Approximate
12:40AM 57.9365 -19.5081 104° East  Level FlightAware Approximate
12:41AM 57.9023 -19.2498 104° East  Level FlightAware Approximate
12:42AM 57.8676 -18.9920 104° East  Level FlightAware Approximate
12:43AM 57.8324 -18.7347 104° East  Level FlightAware Approximate
12:44AM 57.7966 -18.4779 105° East  Level FlightAware Approximate
12:45AM 57.7604 -18.2217 105° East  Level FlightAware Approximate
12:46AM 57.7236 -17.9659 105° East  Level FlightAware Approximate
12:47AM 57.6863 -17.7107 105° East  Level FlightAware Approximate
12:48AM 57.6485 -17.4559 105° East  Level FlightAware Approximate
12:49AM 57.6101 -17.2018 106° East  Level FlightAware Approximate
12:50AM 57.5713 -16.9481 106° East  Level FlightAware Approximate
12:51AM 57.5320 -16.6950 106° East  Level FlightAware Approximate
12:52AM 57.4921 -16.4425 106° East  Level FlightAware Approximate
12:53AM 57.4518 -16.1905 106° East  Level FlightAware Approximate
12:54AM 57.4109 -15.9391 107° East  Level FlightAware Approximate
12:55AM 57.3696 -15.6882 107° East  Level FlightAware Approximate
12:56AM 57.3277 -15.4379 107° East  Level FlightAware Approximate
12:57AM 57.2854 -15.1882 107° East  Level FlightAware Approximate
12:58AM 57.2425 -14.9390 108° East  Level FlightAware Approximate
12:59AM 57.1992 -14.6905 108° East  Level FlightAware Approximate
01:00AM 57.1554 -14.4425 108° East  Level FlightAware Approximate
01:01AM 57.1111 -14.1951 108° East  Level FlightAware Approximate
01:02AM 57.0663 -13.9483 108° East  Level FlightAware Approximate
01:03AM 57.0210 -13.7021 109° East  Level FlightAware Approximate
01:04AM 56.9753 -13.4565 109° East  Level FlightAware Approximate
01:05AM 56.9290 -13.2115 109° East  Level FlightAware Approximate
01:06AM 56.8823 -12.9671 109° East  Level FlightAware Approximate
01:07AM 56.8351 -12.7233 109° East  Level FlightAware Approximate
01:08AM 56.7875 -12.4802 110° East  Level FlightAware Approximate
01:09AM 56.7393 -12.2377 110° East  Level FlightAware Approximate
01:10AM 56.6907 -11.9958 110° East  Level FlightAware Approximate
01:11AM 56.6416 -11.7545 110° East  Level FlightAware Approximate
01:12AM 56.5921 -11.5138 110° East  Level FlightAware Approximate
01:13AM 56.5421 -11.2738 111° Southeast  Level FlightAware Approximate
01:14AM 56.4916 -11.0344 111° Southeast  Level FlightAware Approximate
01:14AM 56.4550 -12.1490 111° Southeast 477 549 35,000  Level FlightAware
01:15AM 56.4407 -10.7957 111° Southeast  Level FlightAware Approximate
01:15AM 56.4200 -11.9780 110° East 474 545 35,000  Level FlightAware
01:15AM 56.3890 -11.8220 110° East 473 544 35,000  Level FlightAware
01:16AM 56.3560 -11.6600 110° East 473 544 35,000  Level FlightAware
01:17AM 56.3290 -11.5300 110° East 471 542 35,000  Level FlightAware
01:17AM 56.2960 -11.3700 110° East 470 541 35,000  Level FlightAware
01:18AM 56.2620 -11.2090 111° Southeast 468 539 35,000  Level FlightAware
01:19AM 56.2300 -11.0600 111° Southeast 469 540 35,000  Level FlightAware
01:20AM 56.1950 -10.8950 111° Southeast 470 541 35,000  Level FlightAware
01:20AM 56.1640 -10.7490 111° Southeast 469 540 35,000  Level FlightAware
01:21AM 56.1320 -10.6000 111° Southeast 469 540 35,000  Level FlightAware
01:22AM 56.0900 -10.4380 115° Southeast 474 545 35,000  Level FlightAware
01:22AM 56.0510 -10.3000 117° Southeast 474 545 35,000  Level FlightAware
01:23AM 56.0080 -10.1430 116° Southeast 474 545 35,000  Level FlightAware
01:24AM 55.9700 -10.0020 116° Southeast 475 547 35,000  Level FlightAware
01:26AM 55.8802 -9.5815 111° Southeast  Level Estimated
01:26AM 55.8670 -9.6430 111° Southeast 473 544 35,000  Level FlightAware
01:26AM 55.8280 -9.5100 118° Southeast 474 545 35,000 -540 Level FlightAware
01:29AM 55.7070 -8.9555 111° Southeast  Level Estimated
01:29AM 55.6703 -8.9725 111° Southeast 454 522 33,500  Level FlightAware UK
01:29AM 55.6513 -8.9092 118° Southeast 456 525 33,500  Level FlightAware UK
01:29AM 55.6324 -8.8463 118° Southeast 456 525 33,500  Level FlightAware UK
01:30AM 55.6137 -8.7831 118° Southeast 456 525 33,500  Level FlightAware UK
01:30AM 55.5885 -8.6989 118° Southeast 456 525 33,500  Level FlightAware UK
01:30AM 55.5691 -8.6353 118° Southeast 458 527 33,500  Level FlightAware UK
01:31AM 55.5500 -8.5723 118° Southeast 454 522 33,500  Level FlightAware UK
01:31AM 55.5309 -8.5093 118° Southeast 456 525 33,500  Level FlightAware UK
01:31AM 55.5117 -8.4463 118° Southeast 456 525 33,500  Level FlightAware UK
01:31AM 55.4924 -8.3833 118° Southeast 456 525 33,500  Level FlightAware UK
01:32AM 55.4731 -8.3203 118° Southeast 456 525 33,500  Level FlightAware UK
01:32AM 55.4538 -8.2571 118° Southeast 458 527 33,500  Level FlightAware UK
01:32AM 55.4344 -8.1941 119° Southeast 456 525 33,500 2,700 Level FlightAware UK
01:33AM 55.4250 -8.1630 119° Southeast 487 560 35,000  Climbing FlightAware
01:33AM 55.4019 -8.0890 119° Southeast 458 527 33,500 -2,760 Descending FlightAware UK
01:33AM 55.3821 -8.0254 119° Southeast 456 525 33,500  Level FlightAware UK
01:33AM 55.3628 -7.9631 119° Southeast 456 525 33,500  Level FlightAware UK
01:34AM 55.3430 -7.8994 119° Southeast 456 525 33,500  Level FlightAware UK
01:34AM 55.3234 -7.8365 119° Southeast 456 525 33,500  Level FlightAware UK
01:34AM 55.3038 -7.7735 119° Southeast 456 525 33,500  Level FlightAware UK
01:35AM 55.2844 -7.7112 119° Southeast 454 522 33,500 2,520 Level FlightAware UK
01:35AM 55.2750 -7.6820 119° Southeast 489 563 35,000  Climbing FlightAware
01:35AM 55.2447 -7.5856 119° Southeast 458 527 33,500 -2,460 Descending FlightAware UK
01:36AM 55.2247 -7.5221 119° Southeast 460 529 33,500 3,420 Level FlightAware UK
01:36AM 55.2220 -7.5140 119° Southeast 493 567 35,000  Climbing FlightAware
01:36AM 55.1983 -7.4393 119° Southeast 462 532 33,500 -2,700 Descending FlightAware UK
01:36AM 55.1780 -7.3760 119° Southeast 462 532 33,500 3,720 Level FlightAware UK
01:36AM 55.1770 -7.3720 119° Southeast 494 568 35,000  Climbing FlightAware
01:37AM 55.1514 -7.2925 119° Southeast 462 532 33,500 -2,520 Descending FlightAware UK
01:37AM 55.1315 -7.2297 119° Southeast 464 534 33,500 4,080 Level FlightAware UK
01:37AM 55.1330 -7.2350 119° Southeast 493 567 35,000  Climbing FlightAware
01:37AM 55.1046 -7.1464 119° Southeast 462 532 33,500 -2,400 Descending FlightAware UK
01:38AM 55.0845 -7.0841 119° Southeast 458 527 33,500 3,600 Level FlightAware UK
01:38AM 55.0830 -7.0780 119° Southeast 493 567 35,000  Climbing FlightAware
01:38AM 55.0576 -7.0012 119° Southeast 458 527 33,500 -2,580 Descending FlightAware UK
01:38AM 55.0376 -6.9390 119° Southeast 464 534 33,500 3,900 Level FlightAware UK
01:38AM 55.0380 -6.9410 119° Southeast 492 566 35,000  Climbing FlightAware
01:39AM 55.0109 -6.8563 119° Southeast 468 539 33,500 -2,460 Descending FlightAware UK
01:39AM 54.9907 -6.7946 120° Southeast 466 536 33,500 4,260 Level FlightAware UK
01:39AM 54.9930 -6.8020 120° Southeast 490 564 35,000  Climbing FlightAware
01:39AM 54.9706 -6.7330 120° Southeast 464 534 33,500 -2,760 Descending FlightAware UK
01:40AM 54.9505 -6.6716 120° Southeast 464 534 33,500 3,000 Level FlightAware UK
01:40AM 54.9430 -6.6480 120° Southeast 488 562 35,000  Climbing FlightAware
01:40AM 54.9168 -6.5690 120° Southeast 466 536 33,500 -2,520 Descending FlightAware UK
01:40AM 54.8968 -6.5089 120° Southeast 464 534 33,500 4,080 Level FlightAware UK
01:40AM 54.8980 -6.5140 120° Southeast 487 560 35,000  Climbing FlightAware
01:41AM 54.8701 -6.4278 120° Southeast 462 532 33,500 -2,400 Descending FlightAware UK
01:41AM 54.8500 -6.3671 120° Southeast 462 532 33,500 4,500 Level FlightAware UK
01:41AM 54.8550 -6.3810 120° Southeast 485 558 35,000  Climbing FlightAware
01:41AM 54.8298 -6.3069 120° Southeast 456 525 33,500 -2,700 Descending FlightAware UK
01:42AM 54.8096 -6.2460 120° Southeast 454 522 33,500 3,060 Level FlightAware UK
01:42AM 54.8040 -6.2290 120° Southeast 484 557 35,000  Climbing FlightAware
01:42AM 54.7764 -6.1470 120° Southeast 452 520 33,500 -2,460 Descending FlightAware UK
01:43AM 54.7561 -6.0863 120° Southeast 454 522 33,500 4,260 Level FlightAware UK
01:43AM 54.7580 -6.0920 120° Southeast 484 557 35,000  Climbing FlightAware
01:43AM 54.7360 -6.0263 120° Southeast 452 520 33,500 -2,760 Descending FlightAware UK
01:43AM 54.7157 -5.9662 120° Southeast 452 520 33,500 3,000 Level FlightAware UK
01:43AM 54.7090 -5.9460 120° Southeast 485 558 35,000  Climbing FlightAware
01:44AM 54.6814 -5.8659 120° Southeast 458 527 33,500 -2,520 Descending FlightAware UK
01:44AM 54.6610 -5.8054 120° Southeast 456 525 33,500 4,080 Level FlightAware UK
01:44AM 54.6630 -5.8110 120° Southeast 487 560 35,000  Climbing FlightAware
01:44AM 54.6339 -5.7250 120° Southeast 460 529 33,500 -2,400 Descending FlightAware UK
01:45AM 54.6133 -5.6649 121° Southeast 456 525 33,500 3,600 Level FlightAware UK
01:45AM 54.6120 -5.6600 121° Southeast 484 557 35,000  Climbing FlightAware
01:45AM 54.5857 -5.5846 121° Southeast 464 534 33,500 -2,580 Descending FlightAware UK
01:45AM 54.5650 -5.5245 121° Southeast 462 532 33,500 3,900 Level FlightAware UK
01:45AM 54.5660 -5.5270 121° Southeast 485 558 35,000  Climbing FlightAware
01:46AM 54.5371 -5.4436 121° Southeast 462 532 33,500 -2,460 Descending FlightAware UK
01:46AM 54.5166 -5.3841 121° Southeast 460 529 33,500 3,420 Level FlightAware UK
01:46AM 54.5140 -5.3750 121° Southeast 486 559 35,000  Climbing FlightAware
01:46AM 54.4889 -5.3039 121° Southeast 460 529 33,500 -2,700 Descending FlightAware UK
01:47AM 54.4678 -5.2431 121° Southeast 464 534 33,500 4,680 Level FlightAware UK
01:47AM 54.4770 -5.2680 121° Southeast 487 560 35,000  Climbing FlightAware
01:47AM 54.4471 -5.1836 121° Southeast 464 534 33,500 -2,580 Descending FlightAware UK
01:47AM 54.4258 -5.1229 121° Southeast 464 534 33,500 2,700 Level FlightAware UK
01:48AM 54.4120 -5.0840 121° Southeast 491 565 35,000  Climbing FlightAware
01:48AM 54.3908 -5.0229 121° Southeast 464 534 33,500 -2,760 Descending FlightAware UK
01:48AM 54.3696 -4.9629 121° Southeast 464 534 33,500 3,600 Level FlightAware UK
01:48AM 54.3660 -4.9520 121° Southeast 492 566 35,000  Climbing FlightAware
01:49AM 54.3415 -4.8831 121° Southeast 466 536 33,500 -2,580 Descending FlightAware UK
01:49AM 54.3203 -4.8232 121° Southeast 468 539 33,500 4,980 Level FlightAware UK
01:49AM 54.3270 -4.8400 121° Southeast 492 566 35,000  Climbing FlightAware
01:49AM 54.2991 -4.7634 121° Southeast 464 534 33,500 -2,520 Descending FlightAware UK
01:49AM 54.2781 -4.7035 121° Southeast 460 529 33,500 2,760 Level FlightAware UK
01:50AM 54.2640 -4.6640 121° Southeast 493 567 35,000  Climbing FlightAware
01:50AM 54.2426 -4.6040 121° Southeast 466 536 33,500  Descending FlightAware UK
01:50AM 54.2180 -4.5340 121° Southeast 493 567 35,000  Climbing FlightAware
01:51AM 54.1928 -4.4649 121° Southeast 470 541 33,500 -2,520 Descending FlightAware UK
01:51AM 54.1713 -4.4053 122° Southeast 470 541 33,500 4,080 Level FlightAware UK
01:51AM 54.1740 -4.4120 122° Southeast 493 567 35,000  Climbing FlightAware
01:51AM 54.1354 -4.3061 122° Southeast 466 536 33,500  Descending FlightAware UK
01:52AM 54.1200 -4.2580 122° Southeast 492 566 35,000 -180 Climbing FlightAware
01:52AM 54.0980 -4.1823 122° Southeast 468 539 33,400 -2,760 Descending FlightAware UK
01:52AM 54.0833 -4.1179 111° Southeast 468 539 33,400 4,140 Level FlightAware UK
01:52AM 54.0830 -4.1160 111° Southeast 489 563 35,000 240 Climbing FlightAware
01:53AM 54.0667 -4.0300 111° Southeast 464 534 33,500 -2,460 Descending FlightAware UK
01:53AM 54.0540 -3.9643 108° East 464 534 33,500 3,420 Level FlightAware UK
01:53AM 54.0510 -3.9490 108° East 489 563 35,000  Climbing FlightAware
01:53AM 54.0371 -3.8759 108° East 466 536 33,500 -2,400 Descending FlightAware UK
01:54AM 54.0242 -3.8103 108° East 464 534 33,600 4,140 Climbing FlightAware UK
01:54AM 54.0230 -3.8040 108° East 489 563 35,100 480 Climbing FlightAware
01:54AM 54.0065 -3.7222 108° East 468 539 33,800 -1,980 Descending FlightAware UK
01:54AM 53.9935 -3.6568 109° East 466 536 33,900 3,900 Climbing FlightAware UK
01:55AM 53.9900 -3.6380 109° East 487 560 35,500 480 Climbing FlightAware
01:55AM 53.9764 -3.5699 109° East 468 539 34,100 480 Descending FlightAware UK
01:55AM 53.9660 -3.5140 109° East 483 556 35,800 480 Climbing FlightAware
01:55AM 53.9514 -3.4415 109° East 460 529 34,400 -2,100 Descending FlightAware UK
01:56AM 53.9386 -3.3779 109° East 456 525 34,600 3,840 Climbing FlightAware UK
01:56AM 53.9350 -3.3570 109° East 475 547 36,200 600 Climbing FlightAware
01:56AM 53.9185 -3.2716 109° East 456 525 34,900 480 Descending FlightAware UK
01:57AM 53.9050 -3.2000 109° East 484 557 36,600 420 Climbing FlightAware
01:57AM 53.8895 -3.1200 109° East 466 536 35,200 300 Descending FlightAware UK
01:57AM 53.8770 -3.0560 109° East 491 565 36,800 420 Climbing FlightAware
01:58AM 53.8601 -2.9661 109° East 470 541 35,500 -2,160 Descending FlightAware UK
01:58AM 53.8476 -2.9003 108° East 472 543 35,500 3,420 Level FlightAware UK
01:58AM 53.8440 -2.8790 108° East 490 564 37,000 -300 Climbing FlightAware
01:58AM 53.8311 -2.8128 108° East 472 543 35,400  Descending FlightAware UK
01:59AM 53.8180 -2.7410 108° East 487 560 37,000 120 Climbing FlightAware
01:59AM 53.8023 -2.6597 108° East 466 536 35,500  Descending FlightAware UK
01:59AM 53.7890 -2.5930 108° East 486 559 37,000  Climbing FlightAware
02:00AM 53.7735 -2.5085 108° East 466 536 35,500  Descending FlightAware UK
02:00AM 53.7590 -2.4300 108° East 487 560 37,000 1,680 Climbing FlightAware
02:01AM 53.7373 -2.3178 108° East 488 562 37,000 -1,920 Level FlightAware ADS-B
02:01AM 53.7239 -2.2477 108° East 468 539 35,500  Descending FlightAware UK
02:01AM 53.7166 -2.2079 108° East 488 562 37,000  Climbing FlightAware ADS-B
02:01AM 53.7035 -2.1393 108° East 468 539 35,500  Descending FlightAware UK
02:02AM 53.6956 -2.0967 108° East 488 562 37,000  Climbing FlightAware ADS-B
02:02AM 53.6832 -2.0309 108° East 468 539 35,500  Descending FlightAware UK
02:02AM 53.6746 -1.9854 108° East 488 562 37,000  Climbing FlightAware ADS-B
02:02AM 53.6624 -1.9219 108° East 468 539 35,500  Descending FlightAware UK
02:03AM 53.6535 -1.8746 108° East 488 562 37,000 1,860 Climbing FlightAware ADS-B
02:03AM 53.6301 -1.7515 108° East 488 562 37,000 -1,740 Level FlightAware ADS-B
02:04AM 53.6170 -1.6828 108° East 470 541 35,500  Descending FlightAware UK
02:04AM 53.6088 -1.6381 108° East 488 562 37,000  Climbing FlightAware ADS-B
02:04AM 53.5924 -1.5521 108° East 470 541 35,500 -2,160 Descending FlightAware UK
02:04AM 53.5803 -1.4871 107° East 470 541 35,500 3,060 Level FlightAware UK
02:05AM 53.5725 -1.4473 107° East 488 562 37,000 2,100 Climbing FlightAware ADS-B
02:05AM 53.5514 -1.3351 108° East 489 563 37,000 -1,860 Level FlightAware ADS-B
02:05AM 53.5388 -1.2701 108° East 474 545 35,500  Descending FlightAware UK
02:06AM 53.5304 -1.2266 108° East 489 563 37,000  Climbing FlightAware ADS-B
02:06AM 53.5179 -1.1620 108° East 470 541 35,500  Descending FlightAware UK
02:06AM 53.5081 -1.1114 108° East 489 563 37,000  Climbing FlightAware ADS-B
02:07AM 53.4887 -1.0100 108° East 474 545 35,500 -1,740 Descending FlightAware UK
02:07AM 53.4722 -0.9236 108° East 472 543 35,500 3,000 Level FlightAware UK
02:07AM 53.4700 -0.9120 108° East 488 562 37,000 3,600 Climbing FlightAware
02:07AM 53.4555 -0.8352 108° East 489 563 37,000 -2,520 Level FlightAware ADS-B
02:08AM 53.4437 -0.7731 108° East 474 545 35,500  Descending FlightAware UK
02:08AM 53.4336 -0.7205 108° East 489 563 37,000  Climbing FlightAware ADS-B
02:08AM 53.4230 -0.6644 108° East 474 545 35,500 -2,760 Descending FlightAware UK
02:09AM 53.4106 -0.5998 108° East 474 545 35,500  Level FlightAware UK
02:09AM 53.3980 -0.5345 108° East 474 545 35,500 3,000 Level FlightAware UK
02:09AM 53.3904 -0.4948 108° East 488 562 37,000  Climbing FlightAware ADS-B
02:09AM 53.3775 -0.4269 108° East 472 543 35,500  Descending FlightAware UK
02:10AM 53.3674 -0.3739 108° East 487 560 37,000  Climbing FlightAware ADS-B
02:10AM 53.3570 -0.3187 108° East 474 545 35,500  Descending FlightAware UK
02:10AM 53.3465 -0.2644 108° East 487 560 37,000  Climbing FlightAware ADS-B
02:10AM 53.3363 -0.2114 108° East 472 543 35,500  Descending FlightAware UK
02:11AM 53.3259 -0.1555 108° East 487 560 37,000  Climbing FlightAware ADS-B
02:11AM 53.3120 -0.0825 108° East 472 543 35,500  Descending FlightAware UK
02:11AM 53.3052 -0.0463 108° East 487 560 37,000  Climbing FlightAware ADS-B
02:11AM 53.2917 0.0254 108° East 474 545 35,500  Descending FlightAware UK
02:12AM 53.2843 0.0654 108° East 487 560 37,000  Climbing FlightAware ADS-B
02:12AM 53.2717 0.1335 108° East 470 541 35,500  Descending FlightAware UK
02:12AM 53.2610 0.1888 108° East 488 562 37,000  Climbing FlightAware ADS-B
02:13AM 53.2472 0.2622 108° East 470 541 35,500  Descending FlightAware UK
02:13AM 53.2392 0.3042 108° East 487 560 37,000 1,980 Climbing FlightAware ADS-B
02:13AM 53.2169 0.4228 107° East 488 562 37,000 -1,680 Level FlightAware ADS-B
02:14AM 53.2028 0.4985 107° East 472 543 35,500  Descending FlightAware UK
02:14AM 53.1951 0.5408 107° East 489 563 37,000  Climbing FlightAware ADS-B
02:14AM 53.1829 0.6070 107° East 474 545 35,500  Descending FlightAware UK
02:14AM 53.1743 0.6524 107° East 489 563 37,000 1,920 Climbing FlightAware ADS-B
02:15AM 53.1524 0.7710 107° East 489 563 37,000  Level FlightAware ADS-B
02:15AM 53.1303 0.8899 107° East 488 562 37,000 -1,800 Level FlightAware ADS-B
02:16AM 53.1188 0.9518 107° East 472 543 35,500  Descending FlightAware UK
02:16AM 53.1099 0.9994 107° East 487 560 37,000  Climbing FlightAware ADS-B
02:16AM 53.0948 1.0814 107° East 472 543 35,500  Descending FlightAware UK
02:17AM 53.0904 1.1080 107° East 488 562 37,000  Climbing FlightAware ADS-B
02:17AM 53.0796 1.1675 107° East 472 543 35,500  Descending FlightAware UK
02:17AM 53.0711 1.2158 107° East 488 562 37,000  Climbing FlightAware ADS-B
02:17AM 53.0563 1.2969 107° East 472 543 35,500  Descending FlightAware UK
02:18AM 53.0504 1.3300 107° East 488 562 37,000  Climbing FlightAware ADS-B
02:18AM 53.0371 1.4031 107° East 472 543 35,500  Descending FlightAware UK
02:18AM 53.0274 1.4560 107° East 488 562 37,000  Climbing FlightAware ADS-B
02:18AM 53.0175 1.5113 107° East 472 543 35,500  Descending FlightAware UK
02:19AM 53.0073 1.5649 107° East 488 562 37,000  Climbing FlightAware ADS-B
02:19AM 52.9977 1.6183 107° East 470 541 35,500  Descending FlightAware UK
02:19AM 52.9866 1.6757 107° East 488 562 37,000 1,860 Climbing FlightAware ADS-B
02:20AM 52.9664 1.7848 107° East 489 563 37,000 -1,800 Level FlightAware ADS-B
02:20AM 52.9532 1.8547 107° East 468 539 35,500  Descending FlightAware UK
02:20AM 52.9438 1.9050 107° East 489 563 37,000  Climbing FlightAware ADS-B
02:21AM 52.9251 2.0043 107° East 468 539 35,500 -2,040 Descending FlightAware UK
02:21AM 52.9130 2.0684 107° East 466 536 35,500  Level FlightAware UK
02:21AM 52.9008 2.1326 107° East 468 539 35,500 3,600 Level FlightAware UK
02:21AM 52.8961 2.1571 107° East 490 564 37,000  Climbing FlightAware ADS-B
02:22AM 52.8845 2.2181 107° East 468 539 35,500  Descending FlightAware UK
02:22AM 52.8700 2.2920 107° East 490 564 37,000  Climbing FlightAware
02:23AM 52.8385 2.4297 107° East 470 541 35,500  Descending FlightAware UK
02:23AM 52.8410 2.4200 107° East 487 560 37,000  Climbing FlightAware
02:23AM 52.8215 2.4910 107° East 470 541 35,500  Descending FlightAware UK
02:23AM 52.7950 2.5860 107° East 488 562 37,000  Climbing FlightAware
02:24AM 52.7709 2.6737 107° East 476 548 35,500  Descending FlightAware UK
02:24AM 52.7590 2.7190 107° East 487 560 37,000  Climbing FlightAware
02:24AM 52.7436 2.7755 107° East 474 545 35,500 -2,760 Descending FlightAware UK
02:25AM 52.7273 2.8367 114° Southeast 474 545 35,500 3,000 Level FlightAware UK
02:25AM 52.7180 2.8740 114° Southeast 487 560 37,000 1,680 Climbing FlightAware
02:26AM 52.6820 3.0090 114° Southeast 487 560 37,000 -1,200 Level FlightAware
02:26AM 52.6455 3.1416 114° Southeast 468 539 35,500  Descending FlightAware UK
02:26AM 52.6400 3.1570 114° Southeast 488 562 37,000  Climbing FlightAware
02:27AM 52.6168 3.2421 114° Southeast 468 539 35,500  Descending FlightAware UK
02:27AM 52.6020 3.2930 114° Southeast 489 563 37,000  Climbing FlightAware
02:27AM 52.5769 3.3833 114° Southeast 472 543 35,500  Descending FlightAware UK
02:28AM 52.5640 3.4270 114° Southeast 490 564 37,000  Climbing FlightAware
02:28AM 52.5481 3.4850 114° Southeast 472 543 35,500  Descending FlightAware UK
02:28AM 52.5220 3.5750 114° Southeast 491 565 37,000 1,260 Climbing FlightAware
02:29AM 52.4820 3.7130 115° Southeast 489 563 37,000  Level FlightAware
02:30AM 52.4370 3.8430 120° Southeast 486 559 37,000  Level FlightAware
02:30AM 52.3860 3.9820 121° Southeast 486 559 37,000  Level FlightAware
02:31AM 52.3200 4.1530 122° Southeast 486 559 37,000  Level FlightAware
02:32AM 52.2670 4.2880 123° Southeast 485 558 37,000  Level FlightAware
02:33AM 52.2230 4.4010 122° Southeast 485 558 37,000 -1,620 Level FlightAware
02:33AM 52.1945 4.4740 122° Southeast 474 545 35,500 -2,580 Descending FlightAware UK
02:33AM 52.1730 4.5295 122° Southeast 474 545 35,500 3,900 Level FlightAware UK
02:33AM 52.1710 4.5340 122° Southeast 485 558 37,000  Climbing FlightAware
02:34AM 52.1442 4.6040 122° Southeast 476 548 35,500  Descending FlightAware UK
02:34AM 52.1240 4.6550 122° Southeast 483 556 37,000  Climbing FlightAware
02:35AM 52.0781 4.7682 122° Southeast 472 543 35,500 -1,800 Descending FlightAware UK
02:35AM 52.0562 4.8228 123° Southeast 472 543 35,500 3,300 Level FlightAware UK
02:35AM 52.0510 4.8390 123° Southeast 482 555 37,000  Climbing FlightAware
02:35AM 52.0201 4.9140 123° Southeast 474 545 35,500  Descending FlightAware UK
02:36AM 52.0010 4.9660 123° Southeast 481 554 37,000  Climbing FlightAware
02:36AM 51.9609 5.0582 123° Southeast 470 541 35,500  Descending FlightAware UK
02:36AM 51.9540 5.0860 123° Southeast 480 552 37,000 1,560 Climbing FlightAware
02:37AM 51.9010 5.2180 123° Southeast 479 551 37,000  Level FlightAware
02:38AM 51.8550 5.3310 123° Southeast 478 550 37,000 -1,200 Level FlightAware
02:38AM 51.8059 5.4570 123° Southeast 470 541 35,500  Descending FlightAware UK
02:39AM 51.7980 5.4740 123° Southeast 478 550 37,000  Climbing FlightAware
02:39AM 51.7677 5.5446 123° Southeast 470 541 35,500 -2,340 Descending FlightAware UK
02:39AM 51.7474 5.5992 121° Southeast 470 541 35,500 4,680 Level FlightAware UK
02:39AM 51.7510 5.5890 121° Southeast 478 550 37,000  Climbing FlightAware
02:40AM 51.7257 5.6535 121° Southeast 470 541 35,500 -2,580 Descending FlightAware UK
02:40AM 51.7028 5.7059 125° Southeast 472 543 35,500 3,180 Level FlightAware UK
02:40AM 51.6960 5.7260 125° Southeast 476 548 37,000  Climbing FlightAware
02:40AM 51.6596 5.8127 125° Southeast 470 541 35,500  Descending FlightAware UK
02:41AM 51.6470 5.8440 125° Southeast 475 547 37,000 1,620 Climbing FlightAware
02:41AM 51.6010 5.9560 123° Southeast 475 547 37,000  Level FlightAware
02:42AM 51.5430 6.0950 124° Southeast 473 544 37,000  Level FlightAware
02:43AM 51.4950 6.2110 124° Southeast 472 543 37,000  Level FlightAware
02:43AM 51.4490 6.3210 124° Southeast 471 542 37,000  Level FlightAware
02:44AM 51.3950 6.4510 124° Southeast 466 536 37,000  Level FlightAware
02:45AM 51.3460 6.5660 124° Southeast 468 539 37,000  Level FlightAware
02:46AM 51.2910 6.6980 124° Southeast 469 540 37,000  Level FlightAware
02:46AM 51.2400 6.8160 125° Southeast 471 542 37,000  Level FlightAware
02:47AM 51.1910 6.9330 124° Southeast 472 543 37,000  Level FlightAware
02:48AM 51.1350 7.0620 125° Southeast 474 545 37,000  Level FlightAware
02:48AM 51.0830 7.1830 124° Southeast 481 554 37,000  Level FlightAware
02:49AM 51.0360 7.2920 124° Southeast 482 555 37,000  Level FlightAware
02:50AM 50.9820 7.4140 125° Southeast 482 555 37,000  Level FlightAware
02:50AM 50.9290 7.5370 124° Southeast 479 551 37,000 -240 Level FlightAware
02:53AM 50.7381 7.8774 131° Southeast  Level Estimated
02:54AM 50.6439 8.0437 132° Southeast  Level Estimated
02:55AM 50.5494 8.2094 132° Southeast  Level Estimated
02:56AM 50.4548 8.3745 132° Southeast  Level Estimated
02:57AM 50.3598 8.5389 132° Southeast  Level Estimated
02:58AM 50.2647 8.7026 132° Southeast  Level Estimated
02:59AM 50.1693 8.8657 132° Southeast  Level Estimated
03:00AM 50.0737 9.0281 132° Southeast  Level Estimated
03:00AM 50.1110 8.8280 132° Southeast 467 537 34,800  Level FlightAware
03:00AM 50.0420 8.9310 136° Southeast 456 525 33,100 -1,320 Descending FlightAware
03:01AM 49.9830 9.0190 136° Southeast 454 522 33,000 -240 Descending FlightAware
03:02AM 49.9150 9.1200 136° Southeast 466 536 32,800 -720 Descending FlightAware
03:02AM 49.8480 9.2190 136° Southeast 472 543 32,000 -1,200 Descending FlightAware
03:03AM 49.7880 9.3070 137° Southeast 471 542 31,200 -1,200 Descending FlightAware
03:04AM 49.7150 9.4140 137° Southeast 468 539 30,300 -1,140 Descending FlightAware
03:05AM 49.6540 9.5040 136° Southeast 471 542 29,600 -1,200 Descending FlightAware
03:05AM 49.5790 9.6130 137° Southeast 469 540 28,600 -1,320 Descending FlightAware
03:06AM 49.5250 9.6910 137° Southeast 469 540 27,900 -1,080 Descending FlightAware
03:07AM 49.4550 9.7930 137° Southeast 467 537 27,100 -900 Descending FlightAware
03:07AM 49.4130 9.8530 137° Southeast 457 526 26,700 -1,080 Descending FlightAware
03:08AM 49.3250 9.9790 137° Southeast 444 511 25,700 -1,020 Descending FlightAware
03:09AM 49.2550 10.0800 137° Southeast 440 506 25,100 -540 Descending FlightAware
03:09AM 49.1940 10.1650 138° Southeast 439 505 25,000 -120 Descending FlightAware
03:10AM 49.1310 10.2580 136° Southeast 443 510 25,000  Level FlightAware
03:11AM 49.0790 10.3400 134° Southeast 451 519 25,000 -180 Level FlightAware
03:12AM 49.0140 10.4450 133° Southeast 449 517 24,800 -1,620 Descending FlightAware
03:12AM 48.9520 10.5450 133° Southeast 446 513 22,600 -2,940 Descending FlightAware
03:13AM 48.8940 10.6370 134° Southeast 436 502 20,700 -2,940 Descending FlightAware
03:14AM 48.8320 10.7340 134° Southeast 421 484 18,500 -2,760 Descending FlightAware
03:14AM 48.7790 10.8190 133° Southeast 411 473 16,800 -2,520 Descending FlightAware
03:15AM 48.7290 10.8970 134° Southeast 398 458 15,200 -1,920 Descending FlightAware
03:16AM 48.6710 10.9830 136° Southeast 368 423 14,100 -1,800 Descending FlightAware
03:16AM 48.6210 11.0510 138° Southeast 358 412 12,700 -1,980 Descending FlightAware
03:17AM 48.5780 11.1100 138° Southeast 352 405 11,500 -1,380 Descending FlightAware
03:18AM 48.5350 11.1680 138° Southeast 357 411 11,000 -420 Descending FlightAware
03:18AM 48.4820 11.2390 138° Southeast 353 406 11,000  Level FlightAware
03:19AM 48.4630 11.2820 124° Southeast 360 414 11,000  Level FlightAware
03:19AM 48.4510 11.3440 106° East 367 422 11,000  Level FlightAware
03:20AM 48.4450 11.4520 95° East 370 426 11,000  Level FlightAware
03:21AM 48.4410 11.5390 94° East 359 413 11,000  Level FlightAware
03:21AM 48.4420 11.6890 89° East 341 392 11,000 -480 Level FlightAware
03:22AM 48.4480 11.7680 83° East 311 358 10,400 -1,680 Descending FlightAware
03:23AM 48.4540 11.8400 83° East 293 337 9,100 -2,160 Descending FlightAware
03:23AM 48.4580 11.9000 84° East 288 331 8,100 -1,860 Descending FlightAware
03:23AM 48.4620 11.9490 83° East 283 326 7,400 -1,860 Descending FlightAware
03:24AM 48.4660 12.0050 84° East 281 323 6,400 -2,100 Descending FlightAware
03:24AM 48.4680 12.0260 82° East 284 327 6,000 -1,980 Descending FlightAware
03:25AM 48.4720 12.0850 84° East 278 320 5,100 -1,680 Descending FlightAware
03:25AM 48.4750 12.1230 83° East 271 312 4,600 -1,200 Descending FlightAware
03:25AM 48.4590 12.1720 116° Southeast 251 289 4,100 -840 Descending FlightAware
03:26AM 48.4210 12.1860 166° South 231 266 3,700 -480 Descending FlightAware
03:26AM 48.4010 12.1760 198° South 224 258 3,700  Level FlightAware
03:27AM 48.3890 12.1240 251° West 225 259 3,700 60 Level FlightAware
03:27AM 48.3870 12.0850 266° West 223 257 3,800  Climbing FlightAware
03:28AM 48.3830 12.0330 263° West 197 227 3,700 -300 Descending FlightAware
03:29AM 48.3800 11.9890 264° West 181 208 3,500 -660 Descending FlightAware
03:29AM 48.3770 11.9520 263° West 177 204 3,000 -1,020 Descending FlightAware
03:30AM 48.3740 11.9190 262° West 149 171 2,500 -840 Descending FlightAware
03:30AM 48.3730 11.8990 266° West 139 160 2,300 -780 Descending FlightAware
03:30AM 48.3700 11.8650 262° West 135 155 1,800 -780 Descending FlightAware
03:31AM 48.3680 11.8380 264° West 133 153 1,500 -600 Descending FlightAware